CFG6MD GCTS-EDDF
Flight info
| Callsign | CFG6MD |
|---|---|
| Flight time | 3h 58m |
| Altitude | 32000 |
| Route | KONBA UN866 OSDIV/N0453F340 UN866 BEXAL DCT LIGRA DCT ADSAD DCT PINOX DCT TOSDI DCT ZMR DCT NUBLO DCT RONSI DCT DELOG DCT PEXOD DCT DIDIG DCT ARDOD UN873 OBATO UM163 TSU UN858 OQQAL DCT RANUX/N0446F350 DCT VALEK DCT LUTAX DCT DIK T856 NIVNU T847 IMCOM IMCOM1A |
| Aircraft | A321/M-SDE3FGHIRWY/LB1 |
Departure
| Time | 2026-05-04 15:24 |
|---|---|
| Airport | Tenerife Sur Airport (GCTS) |
Arrival
| Time | 2026-05-04 19:22 |
|---|---|
| Airport | Frankfurt Main Airport (EDDF) |
| Time | Latitude | Longitude | Altitude | Speed | Heading |
|---|---|---|---|---|---|
| 2026-05-04 14:18 | 28.04672 | -16.57788 | 226 ft | 0 kts | 339° |
| 2026-05-04 15:14 | 28.04665 | -16.57785 | 226 ft | 4 kts | 338° |
| 2026-05-04 15:14 | 28.04640 | -16.57774 | 227 ft | 4 kts | 338° |
| 2026-05-04 15:14 | 28.04618 | -16.57764 | 226 ft | 4 kts | 328° |
| 2026-05-04 15:14 | 28.04604 | -16.57745 | 226 ft | 4 kts | 271° |
| 2026-05-04 15:15 | 28.04608 | -16.57719 | 227 ft | 2 kts | 248° |
| 2026-05-04 15:15 | 28.04610 | -16.57713 | 226 ft | 0 kts | 248° |
| 2026-05-04 15:19 | 28.04600 | -16.57742 | 225 ft | 9 kts | 249° |
| 2026-05-04 15:19 | 28.04565 | -16.57843 | 224 ft | 10 kts | 249° |
| 2026-05-04 15:19 | 28.04428 | -16.57898 | 222 ft | 10 kts | 172° |
| 2026-05-04 15:20 | 28.04395 | -16.57929 | 222 ft | 9 kts | 241° |
| 2026-05-04 15:20 | 28.04367 | -16.58008 | 222 ft | 15 kts | 249° |
| 2026-05-04 15:20 | 28.04320 | -16.58142 | 222 ft | 19 kts | 248° |
| 2026-05-04 15:20 | 28.04272 | -16.58276 | 222 ft | 17 kts | 248° |
| 2026-05-04 15:21 | 28.04231 | -16.58395 | 223 ft | 15 kts | 248° |
| 2026-05-04 15:21 | 28.04187 | -16.58531 | 224 ft | 21 kts | 255° |
| 2026-05-04 15:21 | 28.04078 | -16.58850 | 214 ft | 24 kts | 244° |
| 2026-05-04 15:22 | 28.04012 | -16.58995 | 212 ft | 18 kts | 222° |
| 2026-05-04 15:22 | 28.03956 | -16.58982 | 207 ft | 7 kts | 114° |
| 2026-05-04 15:22 | 28.03910 | -16.58794 | 199 ft | 15 kts | 71° |
| 2026-05-04 15:23 | 28.03918 | -16.58770 | 196 ft | 0 kts | 69° |
| 2026-05-04 15:23 | 28.03927 | -16.58741 | 206 ft | 23 kts | 69° |
| 2026-05-04 15:23 | 28.04074 | -16.58317 | 194 ft | 90 kts | 69° |
| 2026-05-04 15:23 | 28.04373 | -16.57463 | 195 ft | 141 kts | 69° |
| 2026-05-04 15:24 | 28.05167 | -16.55145 | 1118 ft | 157 kts | 69° |
| 2026-05-04 15:24 | 28.06011 | -16.52733 | 2010 ft | 182 kts | 65° |
| 2026-05-04 15:25 | 28.06511 | -16.51320 | 2271 ft | 204 kts | 66° |
| 2026-05-04 15:25 | 28.07053 | -16.49770 | 2438 ft | 225 kts | 66° |
| 2026-05-04 15:25 | 28.07652 | -16.48068 | 2662 ft | 239 kts | 65° |
| 2026-05-04 15:26 | 28.10229 | -16.45603 | 3535 ft | 258 kts | 17° |
| 2026-05-04 15:26 | 28.11970 | -16.44998 | 4151 ft | 264 kts | 17° |
| 2026-05-04 15:26 | 28.15552 | -16.43744 | 5410 ft | 275 kts | 16° |
| 2026-05-04 15:27 | 28.17394 | -16.43100 | 6078 ft | 280 kts | 15° |
| 2026-05-04 15:27 | 28.21149 | -16.41784 | 7266 ft | 289 kts | 14° |
| 2026-05-04 15:28 | 28.25047 | -16.40423 | 8504 ft | 297 kts | 14° |
| 2026-05-04 15:28 | 28.27030 | -16.39732 | 9119 ft | 300 kts | 14° |
| 2026-05-04 15:28 | 28.31055 | -16.38321 | 10236 ft | 307 kts | 13° |
| 2026-05-04 15:29 | 28.33154 | -16.37586 | 10430 ft | 326 kts | 13° |
| 2026-05-04 15:30 | 28.42757 | -16.34225 | 11053 ft | 392 kts | 14° |
| 2026-05-04 15:30 | 28.50711 | -16.31414 | 12520 ft | 405 kts | 13° |
| 2026-05-04 15:31 | 28.56150 | -16.29494 | 13513 ft | 413 kts | 13° |
| 2026-05-04 15:31 | 28.58912 | -16.28519 | 14005 ft | 417 kts | 13° |
| 2026-05-04 15:32 | 28.67281 | -16.25557 | 15283 ft | 426 kts | 13° |
| 2026-05-04 15:32 | 28.72983 | -16.23549 | 16130 ft | 431 kts | 13° |
| 2026-05-04 15:33 | 28.78757 | -16.21510 | 16937 ft | 437 kts | 13° |
| 2026-05-04 15:34 | 28.87546 | -16.18395 | 18162 ft | 445 kts | 13° |
| 2026-05-04 15:34 | 28.90472 | -16.17357 | 18529 ft | 448 kts | 13° |
| 2026-05-04 15:34 | 28.96459 | -16.15237 | 19218 ft | 453 kts | 13° |
| 2026-05-04 15:35 | 29.02504 | -16.13088 | 19898 ft | 457 kts | 13° |
| 2026-05-04 15:35 | 29.05549 | -16.11998 | 20241 ft | 460 kts | 13° |
| 2026-05-04 15:35 | 29.08609 | -16.10903 | 20581 ft | 462 kts | 13° |
| 2026-05-04 15:36 | 29.14767 | -16.08703 | 21279 ft | 466 kts | 13° |
| 2026-05-04 15:36 | 29.17872 | -16.07593 | 21614 ft | 468 kts | 13° |
| 2026-05-04 15:36 | 29.20950 | -16.06494 | 21938 ft | 471 kts | 13° |
| 2026-05-04 15:37 | 29.24085 | -16.05376 | 22258 ft | 473 kts | 13° |
| 2026-05-04 15:37 | 29.27236 | -16.04253 | 22579 ft | 475 kts | 13° |
| 2026-05-04 15:37 | 29.30402 | -16.03124 | 22888 ft | 478 kts | 13° |
| 2026-05-04 15:37 | 29.33583 | -16.01989 | 23204 ft | 480 kts | 13° |
| 2026-05-04 15:38 | 29.36780 | -16.00847 | 23518 ft | 482 kts | 13° |
| 2026-05-04 15:38 | 29.39990 | -15.99697 | 23800 ft | 484 kts | 13° |
| 2026-05-04 15:38 | 29.43214 | -15.98541 | 24064 ft | 486 kts | 13° |
| 2026-05-04 15:38 | 29.46406 | -15.97399 | 24324 ft | 488 kts | 13° |
| 2026-05-04 15:39 | 29.49654 | -15.96236 | 24586 ft | 490 kts | 13° |
| 2026-05-04 15:39 | 29.52912 | -15.95066 | 24839 ft | 491 kts | 13° |
| 2026-05-04 15:39 | 29.59452 | -15.92707 | 25332 ft | 495 kts | 13° |
| 2026-05-04 15:40 | 29.62745 | -15.91517 | 25572 ft | 497 kts | 13° |
| 2026-05-04 15:40 | 29.66048 | -15.90324 | 25815 ft | 498 kts | 13° |
| 2026-05-04 15:40 | 29.69367 | -15.89128 | 26059 ft | 500 kts | 13° |
| 2026-05-04 15:40 | 29.72646 | -15.87946 | 26298 ft | 502 kts | 13° |
| 2026-05-04 15:41 | 29.76028 | -15.86728 | 26541 ft | 503 kts | 12° |
| 2026-05-04 15:41 | 29.79320 | -15.85541 | 26848 ft | 503 kts | 12° |
| 2026-05-04 15:41 | 29.82657 | -15.84334 | 27199 ft | 502 kts | 12° |
| 2026-05-04 15:41 | 29.85989 | -15.83133 | 27532 ft | 501 kts | 12° |
| 2026-05-04 15:42 | 29.89317 | -15.81937 | 27866 ft | 501 kts | 12° |
| 2026-05-04 15:42 | 29.92642 | -15.80741 | 28189 ft | 500 kts | 12° |
| 2026-05-04 15:42 | 29.95964 | -15.79544 | 28514 ft | 500 kts | 12° |
| 2026-05-04 15:42 | 29.99282 | -15.78346 | 28837 ft | 499 kts | 12° |
| 2026-05-04 15:43 | 30.02552 | -15.77159 | 29145 ft | 499 kts | 12° |
| 2026-05-04 15:43 | 30.05863 | -15.75952 | 29451 ft | 499 kts | 12° |
| 2026-05-04 15:43 | 30.09172 | -15.74746 | 29757 ft | 498 kts | 12° |
| 2026-05-04 15:43 | 30.12479 | -15.73542 | 30058 ft | 498 kts | 12° |
| 2026-05-04 15:44 | 30.15784 | -15.72339 | 30313 ft | 498 kts | 12° |
| 2026-05-04 15:44 | 30.19089 | -15.71136 | 30550 ft | 498 kts | 12° |
| 2026-05-04 15:44 | 30.22388 | -15.69932 | 30794 ft | 498 kts | 12° |
| 2026-05-04 15:44 | 30.25690 | -15.68724 | 31037 ft | 498 kts | 12° |
| 2026-05-04 15:45 | 30.28992 | -15.67517 | 31282 ft | 498 kts | 11° |
| 2026-05-04 15:45 | 30.32251 | -15.66329 | 31516 ft | 497 kts | 11° |
| 2026-05-04 15:45 | 30.35552 | -15.65125 | 31760 ft | 497 kts | 11° |
| 2026-05-04 15:45 | 30.38853 | -15.63920 | 31994 ft | 498 kts | 11° |
| 2026-05-04 15:46 | 30.42154 | -15.62715 | 32088 ft | 497 kts | 11° |
| 2026-05-04 15:46 | 30.48742 | -15.60308 | 32096 ft | 496 kts | 11° |
| 2026-05-04 15:47 | 30.55317 | -15.57888 | 32098 ft | 495 kts | 11° |
| 2026-05-04 15:47 | 30.61834 | -15.55481 | 32098 ft | 495 kts | 11° |
| 2026-05-04 15:48 | 30.68403 | -15.53074 | 32098 ft | 495 kts | 11° |
| 2026-05-04 15:48 | 30.78246 | -15.49445 | 32105 ft | 494 kts | 12° |
| 2026-05-04 15:49 | 30.84787 | -15.47025 | 32110 ft | 493 kts | 12° |
| 2026-05-04 15:49 | 30.91285 | -15.44616 | 32116 ft | 493 kts | 12° |
| 2026-05-04 15:50 | 30.97814 | -15.42197 | 32117 ft | 492 kts | 12° |
| 2026-05-04 15:50 | 31.04325 | -15.39777 | 32122 ft | 491 kts | 12° |
| 2026-05-04 15:51 | 31.10834 | -15.37366 | 32122 ft | 490 kts | 12° |
| 2026-05-04 15:51 | 31.17288 | -15.34971 | 32121 ft | 490 kts | 13° |
| 2026-05-04 15:52 | 31.23773 | -15.32553 | 32125 ft | 489 kts | 13° |
| 2026-05-04 15:52 | 31.30181 | -15.29857 | 32123 ft | 493 kts | 23° |
| 2026-05-04 15:53 | 31.36024 | -15.25588 | 32125 ft | 497 kts | 30° |
| 2026-05-04 15:53 | 31.41743 | -15.21151 | 32111 ft | 496 kts | 30° |
| 2026-05-04 15:54 | 31.47501 | -15.16696 | 32114 ft | 496 kts | 30° |
| 2026-05-04 15:54 | 31.53243 | -15.12235 | 32114 ft | 495 kts | 30° |
| 2026-05-04 15:55 | 31.58986 | -15.07757 | 32119 ft | 495 kts | 31° |
| 2026-05-04 15:55 | 31.64672 | -15.03314 | 32116 ft | 495 kts | 31° |
| 2026-05-04 15:56 | 31.70400 | -14.98846 | 32128 ft | 494 kts | 31° |
| 2026-05-04 15:56 | 31.76122 | -14.94382 | 32122 ft | 493 kts | 31° |
| 2026-05-04 15:57 | 31.81829 | -14.89907 | 32127 ft | 493 kts | 31° |
| 2026-05-04 15:57 | 31.87491 | -14.85462 | 32121 ft | 492 kts | 31° |
| 2026-05-04 15:58 | 31.93180 | -14.80997 | 32128 ft | 492 kts | 31° |
| 2026-05-04 15:58 | 31.98862 | -14.76516 | 32122 ft | 491 kts | 31° |
| 2026-05-04 15:59 | 32.04543 | -14.72040 | 32127 ft | 491 kts | 31° |
| 2026-05-04 15:59 | 32.10178 | -14.67593 | 32127 ft | 490 kts | 31° |
| 2026-05-04 16:00 | 32.15846 | -14.63111 | 32126 ft | 490 kts | 31° |
| 2026-05-04 16:00 | 32.21508 | -14.58627 | 32125 ft | 490 kts | 31° |
| 2026-05-04 16:01 | 32.27159 | -14.54141 | 32120 ft | 490 kts | 31° |
| 2026-05-04 16:01 | 32.32815 | -14.49653 | 32123 ft | 489 kts | 31° |
| 2026-05-04 16:02 | 32.38426 | -14.45192 | 32130 ft | 489 kts | 31° |
| 2026-05-04 16:03 | 32.46886 | -14.38456 | 32130 ft | 488 kts | 31° |
| 2026-05-04 16:03 | 32.52511 | -14.33958 | 32134 ft | 488 kts | 31° |
| 2026-05-04 16:04 | 32.58125 | -14.29463 | 32133 ft | 487 kts | 31° |
| 2026-05-04 16:04 | 32.66503 | -14.22748 | 32135 ft | 486 kts | 31° |
| 2026-05-04 16:05 | 32.72117 | -14.18258 | 32135 ft | 486 kts | 31° |
| 2026-05-04 16:06 | 32.80513 | -14.11501 | 32129 ft | 486 kts | 31° |
| 2026-05-04 16:07 | 32.91673 | -14.02503 | 32122 ft | 486 kts | 31° |
| 2026-05-04 16:08 | 33.02866 | -13.93442 | 32127 ft | 486 kts | 31° |
| 2026-05-04 16:09 | 33.16813 | -13.82117 | 32128 ft | 487 kts | 31° |
| 2026-05-04 16:09 | 33.22423 | -13.77523 | 32431 ft | 490 kts | 31° |
| 2026-05-04 16:10 | 33.28038 | -13.72907 | 32958 ft | 490 kts | 31° |
| 2026-05-04 16:11 | 33.36411 | -13.66013 | 33714 ft | 489 kts | 31° |
| 2026-05-04 16:11 | 33.39209 | -13.63712 | 33962 ft | 489 kts | 31° |
| 2026-05-04 16:12 | 33.47615 | -13.56773 | 34132 ft | 489 kts | 31° |
| 2026-05-04 16:12 | 33.55977 | -13.49861 | 34135 ft | 489 kts | 31° |
| 2026-05-04 16:13 | 33.67186 | -13.40558 | 34140 ft | 490 kts | 31° |
| 2026-05-04 16:14 | 33.78361 | -13.31280 | 34138 ft | 490 kts | 30° |
| 2026-05-04 16:16 | 33.92379 | -13.19546 | 34137 ft | 491 kts | 30° |
| 2026-05-04 16:17 | 34.06375 | -13.07830 | 34142 ft | 492 kts | 30° |
| 2026-05-04 16:18 | 34.17595 | -12.98389 | 34145 ft | 492 kts | 30° |
| 2026-05-04 16:19 | 34.31600 | -12.86588 | 34151 ft | 492 kts | 29° |
| 2026-05-04 16:20 | 34.45641 | -12.74805 | 34143 ft | 493 kts | 29° |
| 2026-05-04 16:22 | 34.59727 | -12.62958 | 34155 ft | 493 kts | 29° |
| 2026-05-04 16:23 | 34.76592 | -12.48668 | 34154 ft | 494 kts | 29° |
| 2026-05-04 16:25 | 34.93466 | -12.34315 | 34160 ft | 495 kts | 29° |
| 2026-05-04 16:26 | 35.13157 | -12.17469 | 34155 ft | 495 kts | 29° |
| 2026-05-04 16:28 | 35.27236 | -12.05352 | 34166 ft | 495 kts | 29° |
| 2026-05-04 16:29 | 35.46877 | -11.88369 | 34166 ft | 494 kts | 29° |
| 2026-05-04 16:31 | 35.60876 | -11.76215 | 34164 ft | 494 kts | 29° |
| 2026-05-04 16:32 | 35.77709 | -11.61510 | 34157 ft | 495 kts | 29° |
| 2026-05-04 16:33 | 35.88896 | -11.51711 | 34145 ft | 495 kts | 29° |
| 2026-05-04 16:34 | 35.97314 | -11.44287 | 34147 ft | 496 kts | 29° |
| 2026-05-04 16:35 | 36.14134 | -11.29405 | 34151 ft | 497 kts | 29° |
| 2026-05-04 16:36 | 36.22564 | -11.21905 | 34146 ft | 498 kts | 30° |
| 2026-05-04 16:37 | 36.30952 | -11.14414 | 34140 ft | 498 kts | 30° |
| 2026-05-04 16:38 | 36.42200 | -11.04362 | 34150 ft | 498 kts | 30° |
| 2026-05-04 16:39 | 36.56189 | -10.91767 | 34157 ft | 498 kts | 30° |
| 2026-05-04 16:40 | 36.67399 | -10.81665 | 34157 ft | 497 kts | 30° |
| 2026-05-04 16:41 | 36.81338 | -10.69021 | 34147 ft | 497 kts | 31° |
| 2026-05-04 16:43 | 36.95262 | -10.56366 | 34150 ft | 497 kts | 31° |
| 2026-05-04 16:43 | 37.03615 | -10.48694 | 34142 ft | 497 kts | 31° |
| 2026-05-04 16:45 | 37.20317 | -10.33377 | 34127 ft | 497 kts | 31° |
| 2026-05-04 16:46 | 37.34278 | -10.20521 | 34132 ft | 498 kts | 31° |
| 2026-05-04 16:47 | 37.45419 | -10.10203 | 34139 ft | 499 kts | 31° |
| 2026-05-04 16:48 | 37.56606 | -9.99791 | 34128 ft | 500 kts | 31° |
| 2026-05-04 16:49 | 37.67762 | -9.89394 | 34129 ft | 501 kts | 31° |
| 2026-05-04 16:50 | 37.78972 | -9.78901 | 34134 ft | 502 kts | 31° |
| 2026-05-04 16:51 | 37.87379 | -9.70990 | 34133 ft | 502 kts | 31° |
| 2026-05-04 16:52 | 37.98557 | -9.60450 | 34119 ft | 503 kts | 32° |
| 2026-05-04 16:53 | 38.06233 | -9.51204 | 34120 ft | 509 kts | 40° |
| 2026-05-04 16:54 | 38.16224 | -9.38521 | 34116 ft | 510 kts | 40° |
| 2026-05-04 16:55 | 38.31232 | -9.19395 | 34101 ft | 511 kts | 41° |
| 2026-05-04 16:56 | 38.43766 | -9.03309 | 34087 ft | 512 kts | 41° |
| 2026-05-04 16:57 | 38.51627 | -8.94283 | 34081 ft | 507 kts | 33° |
| 2026-05-04 16:58 | 38.62738 | -8.83171 | 34080 ft | 507 kts | 33° |
| 2026-05-04 17:00 | 38.79358 | -8.66425 | 34081 ft | 508 kts | 34° |
| 2026-05-04 17:01 | 38.93239 | -8.52387 | 34069 ft | 508 kts | 34° |
| 2026-05-04 17:02 | 39.04288 | -8.41135 | 34079 ft | 508 kts | 34° |
| 2026-05-04 17:03 | 39.12602 | -8.32655 | 34076 ft | 508 kts | 34° |
| 2026-05-04 17:03 | 39.20893 | -8.24166 | 34071 ft | 507 kts | 34° |
| 2026-05-04 17:04 | 39.31882 | -8.12862 | 34065 ft | 506 kts | 34° |
| 2026-05-04 17:05 | 39.42858 | -8.01549 | 34066 ft | 506 kts | 34° |
| 2026-05-04 17:06 | 39.51090 | -7.93018 | 34060 ft | 505 kts | 34° |
| 2026-05-04 17:07 | 39.58384 | -7.85429 | 34048 ft | 505 kts | 35° |
| 2026-05-04 17:07 | 39.64759 | -7.78718 | 34042 ft | 505 kts | 36° |
| 2026-05-04 17:08 | 39.72835 | -7.69917 | 34035 ft | 505 kts | 37° |
| 2026-05-04 17:09 | 39.78168 | -7.64064 | 34035 ft | 505 kts | 36° |
| 2026-05-04 17:09 | 39.83539 | -7.58188 | 34030 ft | 505 kts | 36° |
| 2026-05-04 17:10 | 39.96970 | -7.43463 | 34016 ft | 505 kts | 37° |
| 2026-05-04 17:11 | 40.02295 | -7.37585 | 34013 ft | 505 kts | 36° |
| 2026-05-04 17:12 | 40.10335 | -7.28712 | 34004 ft | 505 kts | 36° |
| 2026-05-04 17:13 | 40.23730 | -7.13869 | 34003 ft | 505 kts | 37° |
| 2026-05-04 17:14 | 40.34403 | -7.02009 | 34007 ft | 505 kts | 37° |
| 2026-05-04 17:15 | 40.42432 | -6.93034 | 34002 ft | 506 kts | 37° |
| 2026-05-04 17:16 | 40.53131 | -6.81021 | 33995 ft | 506 kts | 37° |
| 2026-05-04 17:17 | 40.63824 | -6.68970 | 33993 ft | 506 kts | 37° |
| 2026-05-04 17:18 | 40.74465 | -6.56929 | 34049 ft | 504 kts | 36° |
| 2026-05-04 17:19 | 40.84925 | -6.45035 | 33977 ft | 495 kts | 35° |
| 2026-05-04 17:20 | 40.95340 | -6.33143 | 33988 ft | 497 kts | 36° |
| 2026-05-04 17:20 | 41.03165 | -6.24098 | 33995 ft | 498 kts | 37° |
| 2026-05-04 17:21 | 41.13441 | -6.11727 | 33996 ft | 499 kts | 37° |
| 2026-05-04 17:22 | 41.18551 | -6.05594 | 33996 ft | 498 kts | 37° |
| 2026-05-04 17:23 | 41.28841 | -5.93255 | 33981 ft | 498 kts | 38° |
| 2026-05-04 17:24 | 41.36555 | -5.83964 | 33969 ft | 499 kts | 38° |
| 2026-05-04 17:25 | 41.46782 | -5.71557 | 33966 ft | 499 kts | 38° |
| 2026-05-04 17:26 | 41.57965 | -5.61193 | 33970 ft | 483 kts | 17° |
| 2026-05-04 17:27 | 41.73416 | -5.52455 | 33974 ft | 484 kts | 18° |
| 2026-05-04 17:28 | 41.85809 | -5.45433 | 33961 ft | 484 kts | 18° |
| 2026-05-04 17:29 | 42.04352 | -5.34869 | 33965 ft | 484 kts | 18° |
| 2026-05-04 17:31 | 42.19793 | -5.26006 | 33970 ft | 484 kts | 19° |
| 2026-05-04 17:32 | 42.35256 | -5.17099 | 33979 ft | 483 kts | 19° |
| 2026-05-04 17:33 | 42.47564 | -5.09963 | 33979 ft | 483 kts | 19° |
| 2026-05-04 17:34 | 42.59913 | -5.02782 | 33986 ft | 483 kts | 20° |
| 2026-05-04 17:35 | 42.75320 | -4.93789 | 33997 ft | 483 kts | 20° |
| 2026-05-04 17:36 | 42.81499 | -4.90174 | 34002 ft | 484 kts | 20° |
| 2026-05-04 17:36 | 42.87640 | -4.86564 | 34012 ft | 484 kts | 20° |
| 2026-05-04 17:37 | 42.93816 | -4.82910 | 34022 ft | 484 kts | 21° |
| 2026-05-04 17:37 | 42.99997 | -4.79250 | 34030 ft | 484 kts | 21° |
| 2026-05-04 17:38 | 43.06175 | -4.75595 | 34039 ft | 484 kts | 21° |
| 2026-05-04 17:38 | 43.12301 | -4.71958 | 34053 ft | 484 kts | 21° |
| 2026-05-04 17:39 | 43.21547 | -4.66453 | 34058 ft | 482 kts | 21° |
| 2026-05-04 17:39 | 43.27695 | -4.62787 | 34061 ft | 481 kts | 21° |
| 2026-05-04 17:40 | 43.33795 | -4.59145 | 34057 ft | 481 kts | 21° |
| 2026-05-04 17:40 | 43.39929 | -4.55469 | 34059 ft | 481 kts | 22° |
| 2026-05-04 17:41 | 43.46050 | -4.51802 | 34053 ft | 480 kts | 22° |
| 2026-05-04 17:41 | 43.52165 | -4.48120 | 34051 ft | 479 kts | 22° |
| 2026-05-04 17:42 | 43.58262 | -4.44437 | 34047 ft | 478 kts | 22° |
| 2026-05-04 17:42 | 43.64320 | -4.40777 | 34040 ft | 478 kts | 22° |
| 2026-05-04 17:43 | 43.70418 | -4.37088 | 34031 ft | 478 kts | 22° |
| 2026-05-04 17:43 | 43.76513 | -4.33393 | 34022 ft | 478 kts | 22° |
| 2026-05-04 17:44 | 43.82558 | -4.29695 | 34016 ft | 478 kts | 23° |
| 2026-05-04 17:44 | 43.88647 | -4.25970 | 34017 ft | 478 kts | 23° |
| 2026-05-04 17:45 | 43.94736 | -4.22253 | 34011 ft | 479 kts | 23° |
| 2026-05-04 17:45 | 44.00840 | -4.18518 | 34008 ft | 479 kts | 23° |
| 2026-05-04 17:46 | 44.06905 | -4.14803 | 34006 ft | 480 kts | 23° |
| 2026-05-04 17:46 | 44.13006 | -4.11050 | 34012 ft | 480 kts | 23° |
| 2026-05-04 17:47 | 44.19115 | -4.07278 | 34009 ft | 480 kts | 24° |
| 2026-05-04 17:47 | 44.25224 | -4.03487 | 34009 ft | 481 kts | 24° |
| 2026-05-04 17:48 | 44.31298 | -3.99717 | 34012 ft | 481 kts | 25° |
| 2026-05-04 17:48 | 44.36973 | -3.94815 | 34015 ft | 480 kts | 35° |
| 2026-05-04 17:49 | 44.42475 | -3.89502 | 34010 ft | 481 kts | 35° |
| 2026-05-04 17:49 | 44.47982 | -3.84197 | 34013 ft | 481 kts | 35° |
| 2026-05-04 17:50 | 44.52563 | -3.79780 | 34009 ft | 481 kts | 35° |
| 2026-05-04 17:50 | 44.58955 | -3.73581 | 34015 ft | 481 kts | 36° |
| 2026-05-04 17:51 | 44.64456 | -3.68231 | 34015 ft | 481 kts | 36° |
| 2026-05-04 17:51 | 44.69942 | -3.62876 | 34014 ft | 480 kts | 36° |
| 2026-05-04 17:52 | 44.75392 | -3.57545 | 34017 ft | 480 kts | 36° |
| 2026-05-04 17:52 | 44.80869 | -3.52187 | 34014 ft | 480 kts | 36° |
| 2026-05-04 17:53 | 44.85435 | -3.47740 | 34021 ft | 479 kts | 36° |
| 2026-05-04 17:53 | 44.90905 | -3.42373 | 34011 ft | 479 kts | 36° |
| 2026-05-04 17:54 | 44.96357 | -3.36987 | 34016 ft | 479 kts | 36° |
| 2026-05-04 17:54 | 45.01811 | -3.31589 | 34013 ft | 478 kts | 36° |
| 2026-05-04 17:55 | 45.07254 | -3.26195 | 34002 ft | 478 kts | 36° |
| 2026-05-04 17:55 | 45.12662 | -3.20835 | 34009 ft | 478 kts | 36° |
| 2026-05-04 17:56 | 45.18101 | -3.15432 | 34008 ft | 477 kts | 36° |
| 2026-05-04 17:56 | 45.23534 | -3.10009 | 34006 ft | 477 kts | 36° |
| 2026-05-04 17:57 | 45.28953 | -3.04591 | 33998 ft | 477 kts | 37° |
| 2026-05-04 17:57 | 45.34334 | -2.99177 | 33999 ft | 477 kts | 37° |
| 2026-05-04 17:58 | 45.39712 | -2.93636 | 34004 ft | 477 kts | 37° |
| 2026-05-04 17:58 | 45.45076 | -2.88065 | 34004 ft | 477 kts | 38° |
| 2026-05-04 17:59 | 45.50430 | -2.82499 | 33996 ft | 476 kts | 38° |
| 2026-05-04 18:00 | 45.58428 | -2.74195 | 33985 ft | 476 kts | 37° |
| 2026-05-04 18:00 | 45.63783 | -2.68637 | 33990 ft | 476 kts | 38° |
| 2026-05-04 18:01 | 45.69125 | -2.63052 | 33984 ft | 476 kts | 38° |
| 2026-05-04 18:01 | 45.74466 | -2.57451 | 33985 ft | 476 kts | 38° |
| 2026-05-04 18:02 | 45.82435 | -2.49088 | 33992 ft | 476 kts | 38° |
| 2026-05-04 18:02 | 45.87773 | -2.43477 | 33991 ft | 476 kts | 38° |
| 2026-05-04 18:03 | 45.93108 | -2.37853 | 33989 ft | 476 kts | 38° |
| 2026-05-04 18:03 | 45.98428 | -2.32206 | 33994 ft | 475 kts | 38° |
| 2026-05-04 18:04 | 46.03707 | -2.26572 | 33986 ft | 475 kts | 38° |
| 2026-05-04 18:05 | 46.12326 | -2.19460 | 33981 ft | 477 kts | 29° |
| 2026-05-04 18:05 | 46.18182 | -2.14933 | 33979 ft | 477 kts | 30° |
| 2026-05-04 18:06 | 46.26916 | -2.08144 | 33977 ft | 477 kts | 30° |
| 2026-05-04 18:06 | 46.32760 | -2.03586 | 33971 ft | 477 kts | 30° |
| 2026-05-04 18:07 | 46.38604 | -1.99022 | 33971 ft | 477 kts | 30° |
| 2026-05-04 18:07 | 46.44440 | -1.94444 | 33966 ft | 477 kts | 30° |
| 2026-05-04 18:08 | 46.50244 | -1.89880 | 33961 ft | 478 kts | 30° |
| 2026-05-04 18:08 | 46.56084 | -1.85274 | 33958 ft | 478 kts | 30° |
| 2026-05-04 18:09 | 46.67775 | -1.76025 | 33958 ft | 479 kts | 30° |
| 2026-05-04 18:10 | 46.73588 | -1.71415 | 33956 ft | 479 kts | 30° |
| 2026-05-04 18:10 | 46.79445 | -1.66768 | 33953 ft | 479 kts | 31° |
| 2026-05-04 18:11 | 46.85296 | -1.62095 | 33955 ft | 480 kts | 31° |
| 2026-05-04 18:11 | 46.91116 | -1.57427 | 33951 ft | 480 kts | 31° |
| 2026-05-04 18:12 | 46.96975 | -1.52732 | 33953 ft | 481 kts | 31° |
| 2026-05-04 18:12 | 47.02838 | -1.48026 | 33953 ft | 481 kts | 31° |
| 2026-05-04 18:13 | 47.08706 | -1.43294 | 33951 ft | 481 kts | 31° |
| 2026-05-04 18:14 | 47.17521 | -1.36174 | 33947 ft | 482 kts | 31° |
| 2026-05-04 18:14 | 47.23358 | -1.31442 | 33946 ft | 483 kts | 31° |
| 2026-05-04 18:15 | 47.35116 | -1.21878 | 33931 ft | 483 kts | 31° |
| 2026-05-04 18:16 | 47.40988 | -1.17073 | 33929 ft | 483 kts | 32° |
| 2026-05-04 18:16 | 47.46816 | -1.12297 | 33930 ft | 482 kts | 32° |
| 2026-05-04 18:17 | 47.55630 | -1.05078 | 33937 ft | 483 kts | 31° |
| 2026-05-04 18:18 | 47.64435 | -0.97845 | 33939 ft | 482 kts | 32° |
| 2026-05-04 18:18 | 47.70229 | -0.92960 | 33934 ft | 481 kts | 37° |
| 2026-05-04 18:19 | 47.77222 | -0.82704 | 33935 ft | 469 kts | 57° |
| 2026-05-04 18:19 | 47.81188 | -0.74985 | 33932 ft | 470 kts | 57° |
| 2026-05-04 18:20 | 47.85165 | -0.67270 | 33929 ft | 470 kts | 57° |
| 2026-05-04 18:20 | 47.89115 | -0.59582 | 33926 ft | 470 kts | 57° |
| 2026-05-04 18:21 | 47.93074 | -0.51823 | 33925 ft | 471 kts | 57° |
| 2026-05-04 18:21 | 47.97042 | -0.44038 | 33928 ft | 471 kts | 57° |
| 2026-05-04 18:22 | 48.01005 | -0.36240 | 33930 ft | 471 kts | 57° |
| 2026-05-04 18:22 | 48.04937 | -0.28482 | 33929 ft | 472 kts | 57° |
| 2026-05-04 18:23 | 48.08231 | -0.20130 | 33930 ft | 464 kts | 70° |
| 2026-05-04 18:23 | 48.10970 | -0.11379 | 33926 ft | 465 kts | 70° |
| 2026-05-04 18:24 | 48.13728 | -0.02603 | 33922 ft | 466 kts | 69° |
| 2026-05-04 18:24 | 48.16464 | 0.06149 | 33920 ft | 467 kts | 70° |
| 2026-05-04 18:25 | 48.19217 | 0.14988 | 33919 ft | 468 kts | 69° |
| 2026-05-04 18:25 | 48.21965 | 0.23846 | 33927 ft | 469 kts | 69° |
| 2026-05-04 18:26 | 48.24716 | 0.32739 | 33922 ft | 470 kts | 69° |
| 2026-05-04 18:26 | 48.27444 | 0.41595 | 33922 ft | 471 kts | 69° |
| 2026-05-04 18:27 | 48.30193 | 0.50539 | 33924 ft | 472 kts | 69° |
| 2026-05-04 18:27 | 48.32932 | 0.59515 | 33929 ft | 473 kts | 69° |
| 2026-05-04 18:28 | 48.35671 | 0.68507 | 33927 ft | 474 kts | 69° |
| 2026-05-04 18:28 | 48.38405 | 0.77525 | 33929 ft | 474 kts | 69° |
| 2026-05-04 18:29 | 48.41125 | 0.86506 | 33932 ft | 475 kts | 69° |
| 2026-05-04 18:29 | 48.43859 | 0.95554 | 33928 ft | 475 kts | 69° |
| 2026-05-04 18:30 | 48.47940 | 1.09170 | 33932 ft | 475 kts | 69° |
| 2026-05-04 18:31 | 48.50648 | 1.18265 | 33930 ft | 475 kts | 69° |
| 2026-05-04 18:31 | 48.53355 | 1.27376 | 33931 ft | 476 kts | 69° |
| 2026-05-04 18:32 | 48.56039 | 1.36411 | 33928 ft | 476 kts | 69° |
| 2026-05-04 18:32 | 48.58733 | 1.45531 | 33927 ft | 476 kts | 69° |
| 2026-05-04 18:33 | 48.61421 | 1.54661 | 33929 ft | 476 kts | 69° |
| 2026-05-04 18:33 | 48.64099 | 1.63814 | 33923 ft | 476 kts | 69° |
| 2026-05-04 18:34 | 48.66563 | 1.73012 | 33928 ft | 475 kts | 72° |
| 2026-05-04 18:34 | 48.68778 | 1.82407 | 33926 ft | 474 kts | 73° |
| 2026-05-04 18:35 | 48.70966 | 1.91831 | 33926 ft | 475 kts | 73° |
| 2026-05-04 18:35 | 48.73209 | 2.01238 | 33927 ft | 475 kts | 73° |
| 2026-05-04 18:36 | 48.75449 | 2.10594 | 33930 ft | 475 kts | 74° |
| 2026-05-04 18:36 | 48.77363 | 2.20159 | 33934 ft | 473 kts | 78° |
| 2026-05-04 18:37 | 48.78980 | 2.29830 | 33934 ft | 473 kts | 79° |
| 2026-05-04 18:37 | 48.80594 | 2.39434 | 33927 ft | 473 kts | 78° |
| 2026-05-04 18:38 | 48.82303 | 2.49084 | 33926 ft | 474 kts | 78° |
| 2026-05-04 18:38 | 48.84049 | 2.58731 | 33930 ft | 474 kts | 78° |
| 2026-05-04 18:39 | 48.85766 | 2.68390 | 33938 ft | 474 kts | 78° |
| 2026-05-04 18:39 | 48.87452 | 2.78069 | 33936 ft | 474 kts | 78° |
| 2026-05-04 18:40 | 48.89123 | 2.87675 | 33935 ft | 474 kts | 78° |
| 2026-05-04 18:40 | 48.90804 | 2.97369 | 33931 ft | 474 kts | 78° |
| 2026-05-04 18:41 | 48.92480 | 3.07051 | 33930 ft | 474 kts | 79° |
| 2026-05-04 18:41 | 48.94144 | 3.16734 | 33936 ft | 473 kts | 79° |
| 2026-05-04 18:42 | 48.95808 | 3.26417 | 33931 ft | 473 kts | 79° |
| 2026-05-04 18:42 | 48.97448 | 3.36034 | 33928 ft | 473 kts | 79° |
| 2026-05-04 18:43 | 48.99086 | 3.45725 | 33933 ft | 473 kts | 79° |
| 2026-05-04 18:43 | 49.00709 | 3.55420 | 33928 ft | 472 kts | 79° |
| 2026-05-04 18:44 | 49.02327 | 3.65120 | 33929 ft | 472 kts | 79° |
| 2026-05-04 18:44 | 49.04123 | 3.74691 | 34057 ft | 477 kts | 73° |
| 2026-05-04 18:44 | 49.05289 | 3.79419 | 34325 ft | 477 kts | 72° |
| 2026-05-04 18:45 | 49.06462 | 3.84152 | 34591 ft | 476 kts | 72° |
| 2026-05-04 18:45 | 49.07636 | 3.88872 | 34852 ft | 477 kts | 72° |
| 2026-05-04 18:45 | 49.08812 | 3.93596 | 34936 ft | 477 kts | 72° |
| 2026-05-04 18:46 | 49.11154 | 4.03049 | 34948 ft | 476 kts | 72° |
| 2026-05-04 18:46 | 49.13461 | 4.12446 | 34946 ft | 476 kts | 72° |
| 2026-05-04 18:47 | 49.15771 | 4.21915 | 34946 ft | 476 kts | 72° |
| 2026-05-04 18:47 | 49.18084 | 4.31402 | 34945 ft | 476 kts | 73° |
| 2026-05-04 18:48 | 49.20389 | 4.40886 | 34945 ft | 476 kts | 73° |
| 2026-05-04 18:48 | 49.22671 | 4.50320 | 34943 ft | 476 kts | 73° |
| 2026-05-04 18:49 | 49.24956 | 4.59829 | 34941 ft | 476 kts | 73° |
| 2026-05-04 18:49 | 49.27224 | 4.69342 | 34940 ft | 476 kts | 73° |
| 2026-05-04 18:50 | 49.29489 | 4.78857 | 34942 ft | 475 kts | 73° |
| 2026-05-04 18:50 | 49.31744 | 4.88376 | 34943 ft | 475 kts | 73° |
| 2026-05-04 18:51 | 49.33982 | 4.97829 | 34938 ft | 475 kts | 73° |
| 2026-05-04 18:51 | 49.36221 | 5.07364 | 34938 ft | 475 kts | 74° |
| 2026-05-04 18:52 | 49.38456 | 5.16892 | 34942 ft | 475 kts | 74° |
| 2026-05-04 18:52 | 49.40693 | 5.26434 | 34944 ft | 475 kts | 74° |
| 2026-05-04 18:53 | 49.42896 | 5.35909 | 34943 ft | 475 kts | 74° |
| 2026-05-04 18:53 | 49.45101 | 5.45465 | 34937 ft | 475 kts | 74° |
| 2026-05-04 18:53 | 49.46205 | 5.50270 | 34529 ft | 477 kts | 75° |
| 2026-05-04 18:54 | 49.47307 | 5.55085 | 34046 ft | 477 kts | 75° |
| 2026-05-04 18:54 | 49.48410 | 5.59902 | 33503 ft | 477 kts | 75° |
| 2026-05-04 18:54 | 49.49511 | 5.64709 | 32960 ft | 478 kts | 75° |
| 2026-05-04 18:54 | 49.50603 | 5.69479 | 32434 ft | 479 kts | 75° |
| 2026-05-04 18:55 | 49.51707 | 5.74318 | 31910 ft | 480 kts | 75° |
| 2026-05-04 18:55 | 49.53916 | 5.84031 | 30894 ft | 481 kts | 76° |
| 2026-05-04 18:55 | 49.55019 | 5.88897 | 30391 ft | 482 kts | 76° |
| 2026-05-04 18:56 | 49.56122 | 5.93777 | 29881 ft | 482 kts | 76° |
| 2026-05-04 18:56 | 49.57222 | 5.98661 | 29318 ft | 483 kts | 76° |
| 2026-05-04 18:56 | 49.58305 | 6.03494 | 28752 ft | 485 kts | 75° |
| 2026-05-04 18:56 | 49.59401 | 6.08401 | 28209 ft | 486 kts | 75° |
| 2026-05-04 18:57 | 49.60497 | 6.13333 | 27669 ft | 487 kts | 75° |
| 2026-05-04 18:57 | 49.61595 | 6.18279 | 27141 ft | 488 kts | 75° |
| 2026-05-04 18:57 | 49.62699 | 6.23240 | 26619 ft | 489 kts | 74° |
| 2026-05-04 18:57 | 49.63804 | 6.28194 | 26169 ft | 488 kts | 74° |
| 2026-05-04 18:58 | 49.64904 | 6.33128 | 25794 ft | 486 kts | 74° |
| 2026-05-04 18:58 | 49.65996 | 6.38047 | 25416 ft | 483 kts | 74° |
| 2026-05-04 18:58 | 49.67080 | 6.42949 | 24964 ft | 480 kts | 74° |
| 2026-05-04 18:58 | 49.68135 | 6.47736 | 24484 ft | 476 kts | 73° |
| 2026-05-04 18:59 | 49.69195 | 6.52564 | 24022 ft | 473 kts | 73° |
| 2026-05-04 18:59 | 49.70241 | 6.57354 | 23550 ft | 470 kts | 73° |
| 2026-05-04 18:59 | 49.71277 | 6.62118 | 23001 ft | 466 kts | 73° |
| 2026-05-04 18:59 | 49.72307 | 6.66854 | 22468 ft | 462 kts | 73° |
| 2026-05-04 19:00 | 49.73328 | 6.71545 | 21939 ft | 458 kts | 73° |
| 2026-05-04 19:00 | 49.74342 | 6.76193 | 21422 ft | 455 kts | 73° |
| 2026-05-04 19:00 | 49.75344 | 6.80801 | 20910 ft | 451 kts | 73° |
| 2026-05-04 19:00 | 49.76321 | 6.85327 | 20416 ft | 448 kts | 73° |
| 2026-05-04 19:01 | 49.77296 | 6.89879 | 19921 ft | 444 kts | 73° |
| 2026-05-04 19:01 | 49.78266 | 6.94405 | 19434 ft | 441 kts | 73° |
| 2026-05-04 19:01 | 49.79228 | 6.98886 | 18969 ft | 438 kts | 73° |
| 2026-05-04 19:01 | 49.80184 | 7.03348 | 18500 ft | 435 kts | 73° |
| 2026-05-04 19:02 | 49.81130 | 7.07780 | 18007 ft | 432 kts | 73° |
| 2026-05-04 19:02 | 49.82071 | 7.12180 | 17474 ft | 428 kts | 73° |
| 2026-05-04 19:02 | 49.83000 | 7.16538 | 16949 ft | 425 kts | 73° |
| 2026-05-04 19:02 | 49.83921 | 7.20865 | 16433 ft | 421 kts | 73° |
| 2026-05-04 19:03 | 49.84832 | 7.25164 | 15923 ft | 418 kts | 73° |
| 2026-05-04 19:03 | 49.85718 | 7.29368 | 15438 ft | 414 kts | 74° |
| 2026-05-04 19:03 | 49.86602 | 7.33586 | 14963 ft | 411 kts | 74° |
| 2026-05-04 19:03 | 49.87486 | 7.37790 | 14599 ft | 408 kts | 74° |
| 2026-05-04 19:04 | 49.88365 | 7.41964 | 14237 ft | 406 kts | 74° |
| 2026-05-04 19:04 | 49.89239 | 7.46114 | 13877 ft | 404 kts | 74° |
| 2026-05-04 19:04 | 49.90105 | 7.50242 | 13493 ft | 401 kts | 74° |
| 2026-05-04 19:04 | 49.90960 | 7.54349 | 13094 ft | 399 kts | 74° |
| 2026-05-04 19:05 | 49.91810 | 7.58441 | 12727 ft | 397 kts | 74° |
| 2026-05-04 19:05 | 49.92654 | 7.62511 | 12467 ft | 396 kts | 74° |
| 2026-05-04 19:05 | 49.93486 | 7.66528 | 12210 ft | 395 kts | 74° |
| 2026-05-04 19:05 | 49.94325 | 7.70581 | 11951 ft | 394 kts | 74° |
| 2026-05-04 19:06 | 49.95159 | 7.74623 | 11689 ft | 392 kts | 74° |
| 2026-05-04 19:06 | 49.95991 | 7.78653 | 11436 ft | 391 kts | 74° |
| 2026-05-04 19:06 | 49.96821 | 7.82670 | 11187 ft | 390 kts | 74° |
| 2026-05-04 19:06 | 49.97643 | 7.86667 | 10907 ft | 388 kts | 75° |
| 2026-05-04 19:07 | 49.98457 | 7.90655 | 10650 ft | 387 kts | 75° |
| 2026-05-04 19:07 | 49.99259 | 7.94585 | 10417 ft | 385 kts | 74° |
| 2026-05-04 19:07 | 50.00117 | 7.98522 | 10174 ft | 384 kts | 72° |
| 2026-05-04 19:07 | 50.01044 | 8.02413 | 9925 ft | 381 kts | 71° |
| 2026-05-04 19:08 | 50.01993 | 8.06191 | 9660 ft | 369 kts | 70° |
| 2026-05-04 19:08 | 50.02924 | 8.09846 | 9397 ft | 359 kts | 70° |
| 2026-05-04 19:08 | 50.03828 | 8.13413 | 9126 ft | 349 kts | 71° |
| 2026-05-04 19:08 | 50.04690 | 8.16877 | 8947 ft | 338 kts | 71° |
| 2026-05-04 19:09 | 50.05509 | 8.20208 | 8952 ft | 321 kts | 71° |
| 2026-05-04 19:09 | 50.06282 | 8.23368 | 8958 ft | 305 kts | 71° |
| 2026-05-04 19:09 | 50.07026 | 8.26426 | 8960 ft | 301 kts | 72° |
| 2026-05-04 19:09 | 50.07757 | 8.29467 | 8960 ft | 300 kts | 72° |
| 2026-05-04 19:10 | 50.08473 | 8.32470 | 8962 ft | 299 kts | 72° |
| 2026-05-04 19:10 | 50.09209 | 8.35545 | 8961 ft | 299 kts | 72° |
| 2026-05-04 19:10 | 50.09928 | 8.38539 | 8962 ft | 299 kts | 72° |
| 2026-05-04 19:10 | 50.10657 | 8.41576 | 8959 ft | 299 kts | 72° |
| 2026-05-04 19:11 | 50.11385 | 8.44607 | 8955 ft | 298 kts | 72° |
| 2026-05-04 19:11 | 50.12108 | 8.47618 | 8635 ft | 296 kts | 72° |
| 2026-05-04 19:11 | 50.12826 | 8.50611 | 8259 ft | 294 kts | 72° |
| 2026-05-04 19:11 | 50.13540 | 8.53589 | 7894 ft | 292 kts | 72° |
| 2026-05-04 19:12 | 50.14246 | 8.56543 | 7537 ft | 290 kts | 72° |
| 2026-05-04 19:12 | 50.15626 | 8.62349 | 6849 ft | 285 kts | 72° |
| 2026-05-04 19:12 | 50.16312 | 8.65240 | 6500 ft | 283 kts | 72° |
| 2026-05-04 19:13 | 50.16993 | 8.68110 | 6141 ft | 281 kts | 72° |
| 2026-05-04 19:13 | 50.17667 | 8.70952 | 5776 ft | 279 kts | 71° |
| 2026-05-04 19:13 | 50.18333 | 8.73773 | 5422 ft | 276 kts | 71° |
| 2026-05-04 19:13 | 50.18994 | 8.76577 | 5082 ft | 273 kts | 71° |
| 2026-05-04 19:14 | 50.19647 | 8.79348 | 5005 ft | 272 kts | 71° |
| 2026-05-04 19:14 | 50.20301 | 8.82120 | 5012 ft | 273 kts | 71° |
| 2026-05-04 19:14 | 50.20955 | 8.84896 | 5011 ft | 273 kts | 70° |
| 2026-05-04 19:14 | 50.21503 | 8.87684 | 4944 ft | 270 kts | 84° |
| 2026-05-04 19:15 | 50.21327 | 8.90547 | 4594 ft | 265 kts | 112° |
| 2026-05-04 19:15 | 50.20310 | 8.92895 | 4189 ft | 262 kts | 140° |
| 2026-05-04 19:15 | 50.18715 | 8.94110 | 4011 ft | 251 kts | 172° |
| 2026-05-04 19:15 | 50.17043 | 8.94113 | 4028 ft | 231 kts | 190° |
| 2026-05-04 19:16 | 50.15573 | 8.93379 | 4007 ft | 216 kts | 207° |
| 2026-05-04 19:16 | 50.14351 | 8.92073 | 4008 ft | 212 kts | 223° |
| 2026-05-04 19:16 | 50.13423 | 8.90303 | 4014 ft | 212 kts | 239° |
| 2026-05-04 19:16 | 50.12829 | 8.88204 | 4009 ft | 212 kts | 249° |
| 2026-05-04 19:17 | 50.12330 | 8.86074 | 4009 ft | 212 kts | 249° |
| 2026-05-04 19:17 | 50.11824 | 8.83918 | 4018 ft | 211 kts | 249° |
| 2026-05-04 19:17 | 50.11318 | 8.81769 | 4029 ft | 211 kts | 249° |
| 2026-05-04 19:17 | 50.10811 | 8.79620 | 3995 ft | 212 kts | 249° |
| 2026-05-04 19:18 | 50.10306 | 8.77480 | 3778 ft | 206 kts | 249° |
| 2026-05-04 19:18 | 50.09825 | 8.75442 | 3511 ft | 196 kts | 250° |
| 2026-05-04 19:18 | 50.09360 | 8.73478 | 3239 ft | 191 kts | 250° |
| 2026-05-04 19:18 | 50.08903 | 8.71550 | 2975 ft | 188 kts | 250° |
| 2026-05-04 19:19 | 50.08451 | 8.69640 | 2711 ft | 188 kts | 251° |
| 2026-05-04 19:19 | 50.08015 | 8.67801 | 2479 ft | 171 kts | 251° |
| 2026-05-04 19:19 | 50.07625 | 8.66163 | 2222 ft | 157 kts | 251° |
| 2026-05-04 19:19 | 50.07255 | 8.64602 | 2004 ft | 152 kts | 251° |
| 2026-05-04 19:20 | 50.06892 | 8.63073 | 1789 ft | 150 kts | 252° |
| 2026-05-04 19:20 | 50.06532 | 8.61561 | 1580 ft | 149 kts | 252° |
| 2026-05-04 19:20 | 50.06168 | 8.60057 | 1366 ft | 148 kts | 251° |
| 2026-05-04 19:20 | 50.05813 | 8.58557 | 1165 ft | 147 kts | 251° |
| 2026-05-04 19:21 | 50.05465 | 8.57079 | 943 ft | 145 kts | 252° |
| 2026-05-04 19:21 | 50.05117 | 8.55607 | 716 ft | 144 kts | 252° |
| 2026-05-04 19:21 | 50.04775 | 8.54156 | 506 ft | 143 kts | 251° |
| 2026-05-04 19:21 | 50.04429 | 8.52712 | 365 ft | 140 kts | 251° |
| 2026-05-04 19:22 | 50.04140 | 8.51514 | 334 ft | 84 kts | 250° |
| 2026-05-04 19:22 | 50.03979 | 8.51006 | 325 ft | 37 kts | 226° |
| 2026-05-04 19:22 | 50.03844 | 8.50854 | 327 ft | 13 kts | 225° |
| 2026-05-04 19:22 | 50.03805 | 8.50852 | 331 ft | 2 kts | 162° |
| 2026-05-04 19:23 | 50.03784 | 8.50890 | 331 ft | 10 kts | 111° |
| 2026-05-04 19:23 | 50.03794 | 8.50987 | 330 ft | 8 kts | 72° |
| 2026-05-04 19:23 | 50.03816 | 8.51065 | 330 ft | 9 kts | 70° |
| 2026-05-04 19:23 | 50.03855 | 8.51230 | 331 ft | 23 kts | 68° |
| 2026-05-04 19:24 | 50.03915 | 8.51483 | 333 ft | 25 kts | 70° |
| 2026-05-04 19:24 | 50.03972 | 8.51723 | 334 ft | 23 kts | 69° |
| 2026-05-04 19:24 | 50.04034 | 8.51977 | 338 ft | 27 kts | 70° |
| 2026-05-04 19:24 | 50.04092 | 8.52224 | 345 ft | 23 kts | 70° |
| 2026-05-04 19:25 | 50.04144 | 8.52441 | 352 ft | 20 kts | 70° |
| 2026-05-04 19:25 | 50.04189 | 8.52628 | 357 ft | 17 kts | 69° |
| 2026-05-04 19:25 | 50.04229 | 8.52794 | 355 ft | 16 kts | 69° |
| 2026-05-04 19:25 | 50.04265 | 8.52946 | 356 ft | 15 kts | 70° |
| 2026-05-04 19:26 | 50.04312 | 8.53143 | 359 ft | 20 kts | 70° |
| 2026-05-04 19:26 | 50.04355 | 8.53324 | 368 ft | 18 kts | 69° |
| 2026-05-04 19:26 | 50.04395 | 8.53512 | 375 ft | 18 kts | 81° |
| 2026-05-04 19:26 | 50.04408 | 8.53710 | 375 ft | 18 kts | 84° |
| 2026-05-04 19:27 | 50.04421 | 8.53901 | 375 ft | 17 kts | 84° |
| 2026-05-04 19:27 | 50.04433 | 8.54076 | 375 ft | 16 kts | 84° |
| 2026-05-04 19:27 | 50.04446 | 8.54270 | 375 ft | 18 kts | 83° |
| 2026-05-04 19:27 | 50.04450 | 8.54472 | 369 ft | 20 kts | 98° |
| 2026-05-04 19:28 | 50.04395 | 8.54673 | 363 ft | 22 kts | 130° |
| 2026-05-04 19:28 | 50.04278 | 8.54792 | 360 ft | 21 kts | 160° |
| 2026-05-04 19:28 | 50.04136 | 8.54872 | 352 ft | 21 kts | 159° |
| 2026-05-04 19:28 | 50.04022 | 8.54939 | 354 ft | 16 kts | 159° |
| 2026-05-04 19:29 | 50.03914 | 8.55002 | 355 ft | 18 kts | 160° |
| 2026-05-04 19:29 | 50.03849 | 8.55095 | 353 ft | 13 kts | 91° |
| 2026-05-04 19:29 | 50.03874 | 8.55223 | 356 ft | 13 kts | 70° |
| 2026-05-04 19:29 | 50.03919 | 8.55408 | 351 ft | 21 kts | 70° |
| 2026-05-04 19:30 | 50.03968 | 8.55612 | 358 ft | 20 kts | 69° |
| 2026-05-04 19:30 | 50.04014 | 8.55805 | 358 ft | 18 kts | 69° |
| 2026-05-04 19:30 | 50.04055 | 8.55977 | 358 ft | 16 kts | 70° |
| 2026-05-04 19:30 | 50.04092 | 8.56133 | 356 ft | 15 kts | 70° |
| 2026-05-04 19:31 | 50.04131 | 8.56297 | 355 ft | 16 kts | 69° |
| 2026-05-04 19:31 | 50.04169 | 8.56453 | 360 ft | 15 kts | 69° |
| 2026-05-04 19:31 | 50.04204 | 8.56603 | 359 ft | 14 kts | 70° |
| 2026-05-04 19:31 | 50.04238 | 8.56745 | 359 ft | 16 kts | 69° |
| 2026-05-04 19:32 | 50.04283 | 8.56931 | 359 ft | 20 kts | 69° |
| 2026-05-04 19:32 | 50.04329 | 8.57120 | 361 ft | 17 kts | 69° |
| 2026-05-04 19:32 | 50.04369 | 8.57291 | 363 ft | 16 kts | 69° |
| 2026-05-04 19:32 | 50.04414 | 8.57480 | 365 ft | 20 kts | 70° |
| 2026-05-04 19:33 | 50.04457 | 8.57661 | 368 ft | 17 kts | 69° |
| 2026-05-04 19:33 | 50.04496 | 8.57826 | 365 ft | 16 kts | 70° |
| 2026-05-04 19:33 | 50.04533 | 8.57978 | 366 ft | 14 kts | 63° |
| 2026-05-04 19:33 | 50.04627 | 8.58005 | 360 ft | 16 kts | 341° |
| 2026-05-04 19:34 | 50.04735 | 8.57943 | 363 ft | 16 kts | 340° |
| 2026-05-04 19:34 | 50.04826 | 8.57883 | 362 ft | 12 kts | 324° |
| 2026-05-04 19:34 | 50.04875 | 8.57848 | 360 ft | 5 kts | 9° |
| 2026-05-04 19:34 | 50.04898 | 8.57863 | 363 ft | 2 kts | 22° |
| 2026-05-04 19:35 | 50.04914 | 8.57873 | 360 ft | 2 kts | 21° |
| 2026-05-04 19:35 | 50.04923 | 8.57879 | 365 ft | 0 kts | 21° |